sensor_id;sensor_type;location;lat;lon;timestamp;P1;durP1;ratioP1;P2;durP2;ratioP2
8230;SDS011;4156;50.908;6.974;2023-03-22T00:01:14;5.07;;;4.00;;
8230;SDS011;4156;50.908;6.974;2023-03-22T00:03:43;4.70;;;3.50;;
8230;SDS011;4156;50.908;6.974;2023-03-22T00:06:09;6.47;;;4.30;;
8230;SDS011;4156;50.908;6.974;2023-03-22T00:08:35;9.63;;;4.20;;
8230;SDS011;4156;50.908;6.974;2023-03-22T00:11:00;7.27;;;4.20;;
8230;SDS011;4156;50.908;6.974;2023-03-22T00:13:27;6.87;;;4.20;;
8230;SDS011;4156;50.908;6.974;2023-03-22T00:15:53;5.37;;;4.07;;
8230;SDS011;4156;50.908;6.974;2023-03-22T00:18:21;6.27;;;4.63;;
8230;SDS011;4156;50.908;6.974;2023-03-22T00:20:51;6.60;;;4.70;;
8230;SDS011;4156;50.908;6.974;2023-03-22T00:23:18;7.83;;;4.27;;
8230;SDS011;4156;50.908;6.974;2023-03-22T00:25:45;6.47;;;4.43;;
8230;SDS011;4156;50.908;6.974;2023-03-22T00:28:11;6.47;;;4.20;;
8230;SDS011;4156;50.908;6.974;2023-03-22T00:30:38;6.80;;;4.80;;
8230;SDS011;4156;50.908;6.974;2023-03-22T00:33:04;5.67;;;4.40;;
8230;SDS011;4156;50.908;6.974;2023-03-22T00:35:30;7.80;;;4.23;;
8230;SDS011;4156;50.908;6.974;2023-03-22T00:37:55;4.50;;;3.80;;
8230;SDS011;4156;50.908;6.974;2023-03-22T00:40:21;6.50;;;4.33;;
8230;SDS011;4156;50.908;6.974;2023-03-22T00:42:47;6.10;;;4.57;;
8230;SDS011;4156;50.908;6.974;2023-03-22T00:45:12;7.33;;;4.67;;
8230;SDS011;4156;50.908;6.974;2023-03-22T00:47:38;6.80;;;5.27;;
8230;SDS011;4156;50.908;6.974;2023-03-22T00:50:04;6.07;;;4.17;;
8230;SDS011;4156;50.908;6.974;2023-03-22T00:52:31;6.30;;;4.97;;
8230;SDS011;4156;50.908;6.974;2023-03-22T00:54:57;7.27;;;5.17;;
8230;SDS011;4156;50.908;6.974;2023-03-22T00:57:22;7.43;;;4.77;;
8230;SDS011;4156;50.908;6.974;2023-03-22T00:59:48;6.07;;;4.87;;
8230;SDS011;4156;50.908;6.974;2023-03-22T01:02:14;5.77;;;4.30;;
8230;SDS011;4156;50.908;6.974;2023-03-22T01:04:41;7.17;;;4.80;;
8230;SDS011;4156;50.908;6.974;2023-03-22T01:07:10;6.83;;;4.80;;
8230;SDS011;4156;50.908;6.974;2023-03-22T01:09:44;7.00;;;5.60;;
8230;SDS011;4156;50.908;6.974;2023-03-22T01:12:10;6.80;;;5.03;;
8230;SDS011;4156;50.908;6.974;2023-03-22T01:14:36;8.53;;;4.93;;
8230;SDS011;4156;50.908;6.974;2023-03-22T01:17:02;7.23;;;4.70;;
8230;SDS011;4156;50.908;6.974;2023-03-22T01:19:29;7.47;;;4.90;;
8230;SDS011;4156;50.908;6.974;2023-03-22T01:21:54;8.30;;;5.43;;
8230;SDS011;4156;50.908;6.974;2023-03-22T01:24:21;5.57;;;4.40;;
8230;SDS011;4156;50.908;6.974;2023-03-22T01:26:47;6.57;;;4.77;;
8230;SDS011;4156;50.908;6.974;2023-03-22T01:29:15;7.70;;;4.93;;
8230;SDS011;4156;50.908;6.974;2023-03-22T01:31:41;6.13;;;5.00;;
8230;SDS011;4156;50.908;6.974;2023-03-22T01:34:06;7.07;;;4.60;;
8230;SDS011;4156;50.908;6.974;2023-03-22T01:36:32;6.10;;;4.53;;
8230;SDS011;4156;50.908;6.974;2023-03-22T01:38:58;6.93;;;4.37;;
8230;SDS011;4156;50.908;6.974;2023-03-22T01:41:23;7.63;;;4.83;;
8230;SDS011;4156;50.908;6.974;2023-03-22T01:46:38;8.90;;;4.90;;
8230;SDS011;4156;50.908;6.974;2023-03-22T01:49:05;8.57;;;4.83;;
8230;SDS011;4156;50.908;6.974;2023-03-22T01:51:36;6.03;;;4.20;;
8230;SDS011;4156;50.908;6.974;2023-03-22T01:54:04;6.83;;;4.80;;
8230;SDS011;4156;50.908;6.974;2023-03-22T01:56:38;7.10;;;4.97;;
8230;SDS011;4156;50.908;6.974;2023-03-22T01:59:05;6.80;;;4.47;;
8230;SDS011;4156;50.908;6.974;2023-03-22T02:01:33;6.60;;;5.00;;
8230;SDS011;4156;50.908;6.974;2023-03-22T02:06:31;5.60;;;4.77;;
8230;SDS011;4156;50.908;6.974;2023-03-22T02:09:02;8.10;;;4.80;;
8230;SDS011;4156;50.908;6.974;2023-03-22T02:11:34;6.57;;;5.20;;
8230;SDS011;4156;50.908;6.974;2023-03-22T02:14:07;5.30;;;4.37;;
8230;SDS011;4156;50.908;6.974;2023-03-22T02:19:19;5.10;;;4.03;;
8230;SDS011;4156;50.908;6.974;2023-03-22T02:27:34;6.90;;;4.30;;
8230;SDS011;4156;50.908;6.974;2023-03-22T02:30:22;5.50;;;4.27;;
8230;SDS011;4156;50.908;6.974;2023-03-22T02:33:21;5.70;;;4.37;;
8230;SDS011;4156;50.908;6.974;2023-03-22T02:36:30;5.53;;;4.27;;
8230;SDS011;4156;50.908;6.974;2023-03-22T02:39:11;5.67;;;4.07;;
8230;SDS011;4156;50.908;6.974;2023-03-22T02:44:29;5.17;;;4.00;;
8230;SDS011;4156;50.908;6.974;2023-03-22T02:47:18;6.00;;;4.00;;
8230;SDS011;4156;50.908;6.974;2023-03-22T02:50:06;6.83;;;3.87;;
8230;SDS011;4156;50.908;6.974;2023-03-22T02:53:14;6.17;;;4.43;;
8230;SDS011;4156;50.908;6.974;2023-03-22T02:55:50;5.17;;;3.90;;
8230;SDS011;4156;50.908;6.974;2023-03-22T02:58:22;7.53;;;4.23;;
8230;SDS011;4156;50.908;6.974;2023-03-22T03:00:53;7.30;;;4.17;;
8230;SDS011;4156;50.908;6.974;2023-03-22T03:03:24;5.23;;;3.70;;
8230;SDS011;4156;50.908;6.974;2023-03-22T03:05:54;7.13;;;4.30;;
8230;SDS011;4156;50.908;6.974;2023-03-22T03:08:22;5.93;;;4.47;;
8230;SDS011;4156;50.908;6.974;2023-03-22T03:10:50;6.57;;;4.20;;
8230;SDS011;4156;50.908;6.974;2023-03-22T03:13:17;6.63;;;4.07;;
8230;SDS011;4156;50.908;6.974;2023-03-22T03:15:44;6.63;;;4.37;;
8230;SDS011;4156;50.908;6.974;2023-03-22T03:20:58;6.17;;;4.17;;
8230;SDS011;4156;50.908;6.974;2023-03-22T03:26:19;6.63;;;4.10;;
8230;SDS011;4156;50.908;6.974;2023-03-22T03:29:11;5.37;;;4.43;;
8230;SDS011;4156;50.908;6.974;2023-03-22T03:31:55;7.67;;;4.33;;
8230;SDS011;4156;50.908;6.974;2023-03-22T03:34:31;6.43;;;4.17;;
8230;SDS011;4156;50.908;6.974;2023-03-22T03:37:04;6.77;;;4.30;;
8230;SDS011;4156;50.908;6.974;2023-03-22T03:39:33;6.40;;;4.67;;
8230;SDS011;4156;50.908;6.974;2023-03-22T03:42:03;9.07;;;4.20;;
8230;SDS011;4156;50.908;6.974;2023-03-22T03:44:31;6.30;;;4.27;;
8230;SDS011;4156;50.908;6.974;2023-03-22T03:46:59;6.97;;;4.50;;
8230;SDS011;4156;50.908;6.974;2023-03-22T03:49:26;8.40;;;4.30;;
8230;SDS011;4156;50.908;6.974;2023-03-22T03:51:52;6.80;;;4.10;;
8230;SDS011;4156;50.908;6.974;2023-03-22T03:54:20;6.07;;;4.13;;
8230;SDS011;4156;50.908;6.974;2023-03-22T03:56:46;5.97;;;4.40;;
8230;SDS011;4156;50.908;6.974;2023-03-22T03:59:13;7.50;;;4.30;;
8230;SDS011;4156;50.908;6.974;2023-03-22T04:01:40;8.00;;;4.23;;
8230;SDS011;4156;50.908;6.974;2023-03-22T04:04:14;7.80;;;4.80;;
8230;SDS011;4156;50.908;6.974;2023-03-22T04:06:41;6.60;;;4.33;;
8230;SDS011;4156;50.908;6.974;2023-03-22T04:09:06;5.70;;;3.60;;
8230;SDS011;4156;50.908;6.974;2023-03-22T04:11:32;8.73;;;5.00;;
8230;SDS011;4156;50.908;6.974;2023-03-22T04:13:58;7.77;;;4.20;;
8230;SDS011;4156;50.908;6.974;2023-03-22T04:16:23;5.17;;;4.43;;
8230;SDS011;4156;50.908;6.974;2023-03-22T04:18:49;6.80;;;4.10;;
8230;SDS011;4156;50.908;6.974;2023-03-22T04:21:15;7.30;;;4.33;;
8230;SDS011;4156;50.908;6.974;2023-03-22T04:23:40;7.17;;;4.53;;
8230;SDS011;4156;50.908;6.974;2023-03-22T04:26:06;5.83;;;4.10;;
8230;SDS011;4156;50.908;6.974;2023-03-22T04:28:31;6.07;;;4.47;;
8230;SDS011;4156;50.908;6.974;2023-03-22T04:30:57;6.70;;;4.67;;
8230;SDS011;4156;50.908;6.974;2023-03-22T04:33:23;9.90;;;7.10;;
8230;SDS011;4156;50.908;6.974;2023-03-22T04:35:50;6.87;;;4.80;;
8230;SDS011;4156;50.908;6.974;2023-03-22T04:38:20;7.37;;;4.50;;
8230;SDS011;4156;50.908;6.974;2023-03-22T04:40:46;10.90;;;4.97;;
8230;SDS011;4156;50.908;6.974;2023-03-22T04:43:12;6.43;;;4.40;;
8230;SDS011;4156;50.908;6.974;2023-03-22T04:45:39;5.83;;;4.80;;
8230;SDS011;4156;50.908;6.974;2023-03-22T04:48:06;8.07;;;4.63;;
8230;SDS011;4156;50.908;6.974;2023-03-22T04:50:31;13.13;;;6.87;;
8230;SDS011;4156;50.908;6.974;2023-03-22T04:52:57;8.33;;;4.80;;
8230;SDS011;4156;50.908;6.974;2023-03-22T04:55:22;8.03;;;4.93;;
8230;SDS011;4156;50.908;6.974;2023-03-22T04:57:48;7.93;;;5.13;;
8230;SDS011;4156;50.908;6.974;2023-03-22T05:00:15;7.47;;;5.00;;
8230;SDS011;4156;50.908;6.974;2023-03-22T05:02:41;7.20;;;4.93;;
8230;SDS011;4156;50.908;6.974;2023-03-22T05:05:06;8.80;;;5.27;;
8230;SDS011;4156;50.908;6.974;2023-03-22T05:07:32;6.17;;;4.80;;
8230;SDS011;4156;50.908;6.974;2023-03-22T05:09:58;8.83;;;5.33;;
8230;SDS011;4156;50.908;6.974;2023-03-22T05:12:23;7.43;;;4.90;;
8230;SDS011;4156;50.908;6.974;2023-03-22T05:14:49;6.57;;;5.33;;
8230;SDS011;4156;50.908;6.974;2023-03-22T05:17:15;7.43;;;5.17;;
8230;SDS011;4156;50.908;6.974;2023-03-22T05:19:40;11.17;;;5.53;;
8230;SDS011;4156;50.908;6.974;2023-03-22T05:22:06;7.63;;;5.00;;
8230;SDS011;4156;50.908;6.974;2023-03-22T05:24:31;8.30;;;5.30;;
8230;SDS011;4156;50.908;6.974;2023-03-22T05:26:57;7.07;;;5.00;;
8230;SDS011;4156;50.908;6.974;2023-03-22T05:29:25;9.33;;;5.40;;
8230;SDS011;4156;50.908;6.974;2023-03-22T05:31:51;7.07;;;5.10;;
8230;SDS011;4156;50.908;6.974;2023-03-22T05:34:17;7.83;;;4.77;;
8230;SDS011;4156;50.908;6.974;2023-03-22T05:36:44;6.43;;;4.63;;
8230;SDS011;4156;50.908;6.974;2023-03-22T05:39:10;5.73;;;4.10;;
8230;SDS011;4156;50.908;6.974;2023-03-22T05:41:36;7.83;;;4.30;;
8230;SDS011;4156;50.908;6.974;2023-03-22T05:44:02;6.07;;;4.17;;
8230;SDS011;4156;50.908;6.974;2023-03-22T05:46:28;6.93;;;4.37;;
8230;SDS011;4156;50.908;6.974;2023-03-22T05:48:53;6.70;;;4.53;;
8230;SDS011;4156;50.908;6.974;2023-03-22T05:51:19;5.33;;;4.57;;
8230;SDS011;4156;50.908;6.974;2023-03-22T05:53:47;7.60;;;4.37;;
8230;SDS011;4156;50.908;6.974;2023-03-22T05:56:13;5.17;;;4.07;;
8230;SDS011;4156;50.908;6.974;2023-03-22T05:58:39;5.57;;;4.10;;
8230;SDS011;4156;50.908;6.974;2023-03-22T06:01:06;7.10;;;4.73;;
8230;SDS011;4156;50.908;6.974;2023-03-22T06:03:34;5.53;;;4.03;;
8230;SDS011;4156;50.908;6.974;2023-03-22T06:06:00;5.13;;;3.60;;
8230;SDS011;4156;50.908;6.974;2023-03-22T06:08:26;4.63;;;4.00;;
8230;SDS011;4156;50.908;6.974;2023-03-22T06:10:51;6.33;;;3.70;;
8230;SDS011;4156;50.908;6.974;2023-03-22T06:13:18;6.80;;;3.73;;
8230;SDS011;4156;50.908;6.974;2023-03-22T06:15:44;5.40;;;4.03;;
8230;SDS011;4156;50.908;6.974;2023-03-22T06:18:11;5.07;;;4.23;;
8230;SDS011;4156;50.908;6.974;2023-03-22T06:20:36;4.67;;;3.60;;
8230;SDS011;4156;50.908;6.974;2023-03-22T06:23:03;8.23;;;4.37;;
8230;SDS011;4156;50.908;6.974;2023-03-22T06:25:29;6.37;;;4.67;;
8230;SDS011;4156;50.908;6.974;2023-03-22T06:27:54;6.83;;;3.90;;
8230;SDS011;4156;50.908;6.974;2023-03-22T06:30:20;5.43;;;4.20;;
8230;SDS011;4156;50.908;6.974;2023-03-22T06:32:45;5.33;;;4.30;;
8230;SDS011;4156;50.908;6.974;2023-03-22T06:35:11;6.77;;;4.13;;
8230;SDS011;4156;50.908;6.974;2023-03-22T06:37:36;5.73;;;4.10;;
8230;SDS011;4156;50.908;6.974;2023-03-22T06:40:02;6.03;;;3.93;;
8230;SDS011;4156;50.908;6.974;2023-03-22T06:42:28;10.93;;;4.43;;
8230;SDS011;4156;50.908;6.974;2023-03-22T06:44:55;8.67;;;4.17;;
8230;SDS011;4156;50.908;6.974;2023-03-22T06:47:21;7.70;;;4.13;;
8230;SDS011;4156;50.908;6.974;2023-03-22T06:49:46;8.30;;;4.20;;
8230;SDS011;4156;50.908;6.974;2023-03-22T06:52:12;5.87;;;4.23;;
8230;SDS011;4156;50.908;6.974;2023-03-22T06:54:37;6.73;;;4.03;;
8230;SDS011;4156;50.908;6.974;2023-03-22T06:57:03;5.93;;;3.77;;
8230;SDS011;4156;50.908;6.974;2023-03-22T06:59:28;6.87;;;3.80;;
8230;SDS011;4156;50.908;6.974;2023-03-22T07:01:54;4.70;;;3.60;;
8230;SDS011;4156;50.908;6.974;2023-03-22T07:04:20;8.17;;;4.30;;
8230;SDS011;4156;50.908;6.974;2023-03-22T07:06:45;6.33;;;4.03;;
8230;SDS011;4156;50.908;6.974;2023-03-22T07:09:11;7.20;;;3.67;;
8230;SDS011;4156;50.908;6.974;2023-03-22T07:11:36;6.37;;;3.67;;
8230;SDS011;4156;50.908;6.974;2023-03-22T07:14:02;7.93;;;3.90;;
8230;SDS011;4156;50.908;6.974;2023-03-22T07:16:28;5.43;;;4.37;;
8230;SDS011;4156;50.908;6.974;2023-03-22T07:18:53;5.87;;;4.07;;
8230;SDS011;4156;50.908;6.974;2023-03-22T07:21:19;9.27;;;3.53;;
8230;SDS011;4156;50.908;6.974;2023-03-22T07:23:45;6.90;;;4.30;;
8230;SDS011;4156;50.908;6.974;2023-03-22T07:26:11;7.37;;;3.80;;
8230;SDS011;4156;50.908;6.974;2023-03-22T07:28:37;5.70;;;4.13;;
8230;SDS011;4156;50.908;6.974;2023-03-22T07:31:07;5.23;;;3.10;;
8230;SDS011;4156;50.908;6.974;2023-03-22T07:33:35;5.67;;;3.03;;
8230;SDS011;4156;50.908;6.974;2023-03-22T07:36:02;4.43;;;2.80;;
8230;SDS011;4156;50.908;6.974;2023-03-22T07:38:29;6.27;;;3.17;;
8230;SDS011;4156;50.908;6.974;2023-03-22T07:40:54;4.33;;;2.80;;
8230;SDS011;4156;50.908;6.974;2023-03-22T07:43:20;4.93;;;2.73;;
8230;SDS011;4156;50.908;6.974;2023-03-22T07:45:49;6.40;;;2.83;;
8230;SDS011;4156;50.908;6.974;2023-03-22T07:48:16;4.43;;;2.47;;
8230;SDS011;4156;50.908;6.974;2023-03-22T07:50:42;7.37;;;3.17;;
8230;SDS011;4156;50.908;6.974;2023-03-22T07:53:09;3.70;;;2.80;;
8230;SDS011;4156;50.908;6.974;2023-03-22T07:55:35;5.77;;;3.77;;
8230;SDS011;4156;50.908;6.974;2023-03-22T07:58:01;4.30;;;2.97;;
8230;SDS011;4156;50.908;6.974;2023-03-22T08:00:27;5.23;;;3.07;;
8230;SDS011;4156;50.908;6.974;2023-03-22T08:02:53;5.47;;;2.60;;
8230;SDS011;4156;50.908;6.974;2023-03-22T08:05:19;3.50;;;2.50;;
8230;SDS011;4156;50.908;6.974;2023-03-22T08:07:46;3.80;;;2.50;;
8230;SDS011;4156;50.908;6.974;2023-03-22T08:10:12;4.40;;;2.20;;
8230;SDS011;4156;50.908;6.974;2023-03-22T08:12:38;4.07;;;2.10;;
8230;SDS011;4156;50.908;6.974;2023-03-22T08:15:03;4.40;;;2.17;;
8230;SDS011;4156;50.908;6.974;2023-03-22T08:17:29;2.77;;;1.90;;
8230;SDS011;4156;50.908;6.974;2023-03-22T08:19:55;4.03;;;1.87;;
8230;SDS011;4156;50.908;6.974;2023-03-22T08:22:21;2.63;;;1.60;;
8230;SDS011;4156;50.908;6.974;2023-03-22T08:24:50;3.17;;;1.63;;
8230;SDS011;4156;50.908;6.974;2023-03-22T08:27:16;4.30;;;1.70;;
8230;SDS011;4156;50.908;6.974;2023-03-22T08:29:43;2.70;;;2.00;;
8230;SDS011;4156;50.908;6.974;2023-03-22T08:32:08;3.23;;;1.70;;
8230;SDS011;4156;50.908;6.974;2023-03-22T08:34:38;2.40;;;1.40;;
8230;SDS011;4156;50.908;6.974;2023-03-22T08:37:05;5.20;;;1.70;;
8230;SDS011;4156;50.908;6.974;2023-03-22T08:39:31;4.97;;;1.60;;
8230;SDS011;4156;50.908;6.974;2023-03-22T08:41:57;3.83;;;1.80;;
8230;SDS011;4156;50.908;6.974;2023-03-22T08:44:22;3.37;;;1.83;;
8230;SDS011;4156;50.908;6.974;2023-03-22T08:46:48;2.20;;;1.60;;
8230;SDS011;4156;50.908;6.974;2023-03-22T08:49:14;3.40;;;1.77;;
8230;SDS011;4156;50.908;6.974;2023-03-22T08:51:40;5.30;;;1.80;;
8230;SDS011;4156;50.908;6.974;2023-03-22T08:54:06;5.43;;;1.87;;
8230;SDS011;4156;50.908;6.974;2023-03-22T08:56:31;5.60;;;1.73;;
8230;SDS011;4156;50.908;6.974;2023-03-22T08:59:01;2.17;;;1.40;;
8230;SDS011;4156;50.908;6.974;2023-03-22T09:01:27;1.57;;;1.37;;
8230;SDS011;4156;50.908;6.974;2023-03-22T09:03:53;2.53;;;1.50;;
8230;SDS011;4156;50.908;6.974;2023-03-22T09:06:19;5.40;;;1.40;;
8230;SDS011;4156;50.908;6.974;2023-03-22T09:08:44;3.90;;;2.13;;
8230;SDS011;4156;50.908;6.974;2023-03-22T09:11:11;3.43;;;1.57;;
8230;SDS011;4156;50.908;6.974;2023-03-22T09:13:37;2.00;;;1.40;;
8230;SDS011;4156;50.908;6.974;2023-03-22T09:16:03;1.67;;;1.30;;
8230;SDS011;4156;50.908;6.974;2023-03-22T09:18:30;1.63;;;1.40;;
8230;SDS011;4156;50.908;6.974;2023-03-22T09:20:56;1.83;;;1.43;;
8230;SDS011;4156;50.908;6.974;2023-03-22T09:23:21;1.47;;;1.37;;
8230;SDS011;4156;50.908;6.974;2023-03-22T09:25:47;4.00;;;1.50;;
8230;SDS011;4156;50.908;6.974;2023-03-22T09:28:13;2.37;;;1.40;;
8230;SDS011;4156;50.908;6.974;2023-03-22T09:30:39;2.07;;;1.43;;
8230;SDS011;4156;50.908;6.974;2023-03-22T09:33:05;1.80;;;1.30;;
8230;SDS011;4156;50.908;6.974;2023-03-22T09:35:31;1.57;;;1.33;;
8230;SDS011;4156;50.908;6.974;2023-03-22T09:37:57;4.87;;;1.70;;
8230;SDS011;4156;50.908;6.974;2023-03-22T09:40:25;1.97;;;1.30;;
8230;SDS011;4156;50.908;6.974;2023-03-22T09:42:53;3.37;;;1.23;;
8230;SDS011;4156;50.908;6.974;2023-03-22T09:45:24;3.00;;;1.80;;
8230;SDS011;4156;50.908;6.974;2023-03-22T09:48:01;1.67;;;1.10;;
8230;SDS011;4156;50.908;6.974;2023-03-22T09:50:31;3.17;;;1.60;;
8230;SDS011;4156;50.908;6.974;2023-03-22T09:52:59;1.90;;;1.00;;
8230;SDS011;4156;50.908;6.974;2023-03-22T09:56:12;1.67;;;1.57;;
8230;SDS011;4156;50.908;6.974;2023-03-22T10:01:02;3.83;;;1.23;;
8230;SDS011;4156;50.908;6.974;2023-03-22T10:06:23;1.80;;;1.40;;
8230;SDS011;4156;50.908;6.974;2023-03-22T10:09:05;8.20;;;2.30;;
8230;SDS011;4156;50.908;6.974;2023-03-22T10:14:19;2.63;;;1.40;;
8230;SDS011;4156;50.908;6.974;2023-03-22T10:16:56;1.57;;;1.20;;
8230;SDS011;4156;50.908;6.974;2023-03-22T10:19:32;2.47;;;1.70;;
8230;SDS011;4156;50.908;6.974;2023-03-22T10:22:05;1.80;;;1.43;;
8230;SDS011;4156;50.908;6.974;2023-03-22T10:24:34;3.77;;;1.70;;
8230;SDS011;4156;50.908;6.974;2023-03-22T10:27:02;2.83;;;1.30;;
8230;SDS011;4156;50.908;6.974;2023-03-22T10:29:37;2.47;;;1.20;;
8230;SDS011;4156;50.908;6.974;2023-03-22T10:32:14;2.20;;;1.47;;
8230;SDS011;4156;50.908;6.974;2023-03-22T10:34:41;2.43;;;1.47;;
8230;SDS011;4156;50.908;6.974;2023-03-22T10:37:09;1.77;;;1.30;;
8230;SDS011;4156;50.908;6.974;2023-03-22T10:39:42;4.10;;;1.83;;
8230;SDS011;4156;50.908;6.974;2023-03-22T10:42:11;4.67;;;1.30;;
8230;SDS011;4156;50.908;6.974;2023-03-22T10:47:43;1.30;;;1.20;;
8230;SDS011;4156;50.908;6.974;2023-03-22T10:50:15;1.83;;;1.07;;
8230;SDS011;4156;50.908;6.974;2023-03-22T10:55:39;2.73;;;1.33;;
8230;SDS011;4156;50.908;6.974;2023-03-22T10:58:10;1.60;;;1.50;;
8230;SDS011;4156;50.908;6.974;2023-03-22T11:00:36;1.43;;;1.30;;
8230;SDS011;4156;50.908;6.974;2023-03-22T11:03:03;1.93;;;1.30;;
8230;SDS011;4156;50.908;6.974;2023-03-22T11:05:30;2.77;;;1.50;;
8230;SDS011;4156;50.908;6.974;2023-03-22T11:07:56;2.23;;;1.53;;
8230;SDS011;4156;50.908;6.974;2023-03-22T11:10:24;2.23;;;1.20;;
8230;SDS011;4156;50.908;6.974;2023-03-22T11:15:59;4.40;;;1.67;;
8230;SDS011;4156;50.908;6.974;2023-03-22T11:18:30;1.37;;;1.17;;
8230;SDS011;4156;50.908;6.974;2023-03-22T11:21:05;4.07;;;1.67;;
8230;SDS011;4156;50.908;6.974;2023-03-22T11:23:33;1.27;;;1.17;;
8230;SDS011;4156;50.908;6.974;2023-03-22T11:26:12;2.70;;;1.40;;
8230;SDS011;4156;50.908;6.974;2023-03-22T11:28:44;1.50;;;1.30;;
8230;SDS011;4156;50.908;6.974;2023-03-22T11:31:14;1.13;;;1.03;;
8230;SDS011;4156;50.908;6.974;2023-03-22T11:33:57;2.13;;;1.00;;
8230;SDS011;4156;50.908;6.974;2023-03-22T11:36:25;2.30;;;1.50;;
8230;SDS011;4156;50.908;6.974;2023-03-22T11:38:58;1.30;;;1.20;;
8230;SDS011;4156;50.908;6.974;2023-03-22T11:41:26;2.33;;;1.30;;
8230;SDS011;4156;50.908;6.974;2023-03-22T11:43:55;3.33;;;1.80;;
8230;SDS011;4156;50.908;6.974;2023-03-22T11:46:25;2.70;;;1.20;;
8230;SDS011;4156;50.908;6.974;2023-03-22T11:48:55;3.43;;;1.40;;
8230;SDS011;4156;50.908;6.974;2023-03-22T11:51:27;2.07;;;1.37;;
8230;SDS011;4156;50.908;6.974;2023-03-22T11:54:32;1.53;;;1.13;;
8230;SDS011;4156;50.908;6.974;2023-03-22T11:56:58;2.13;;;1.47;;
8230;SDS011;4156;50.908;6.974;2023-03-22T11:59:29;2.17;;;1.30;;
8230;SDS011;4156;50.908;6.974;2023-03-22T12:04:53;2.40;;;1.30;;
8230;SDS011;4156;50.908;6.974;2023-03-22T12:07:29;2.87;;;1.53;;
8230;SDS011;4156;50.908;6.974;2023-03-22T12:12:29;2.20;;;1.47;;
8230;SDS011;4156;50.908;6.974;2023-03-22T12:15:03;3.10;;;1.40;;
8230;SDS011;4156;50.908;6.974;2023-03-22T12:17:36;3.57;;;1.50;;
8230;SDS011;4156;50.908;6.974;2023-03-22T12:22:49;2.73;;;1.50;;
8230;SDS011;4156;50.908;6.974;2023-03-22T12:25:19;1.73;;;1.30;;
8230;SDS011;4156;50.908;6.974;2023-03-22T12:27:53;1.97;;;1.20;;
8230;SDS011;4156;50.908;6.974;2023-03-22T12:30:23;3.00;;;1.40;;
8230;SDS011;4156;50.908;6.974;2023-03-22T12:33:03;3.00;;;1.50;;
8230;SDS011;4156;50.908;6.974;2023-03-22T12:35:37;4.23;;;1.50;;
8230;SDS011;4156;50.908;6.974;2023-03-22T12:41:03;2.77;;;1.40;;
8230;SDS011;4156;50.908;6.974;2023-03-22T12:43:37;1.60;;;1.30;;
8230;SDS011;4156;50.908;6.974;2023-03-22T12:46:19;2.70;;;1.30;;
8230;SDS011;4156;50.908;6.974;2023-03-22T12:51:53;3.07;;;1.37;;
8230;SDS011;4156;50.908;6.974;2023-03-22T12:54:28;3.10;;;1.47;;
8230;SDS011;4156;50.908;6.974;2023-03-22T12:56:54;1.63;;;1.20;;
8230;SDS011;4156;50.908;6.974;2023-03-22T12:59:25;1.90;;;1.37;;
8230;SDS011;4156;50.908;6.974;2023-03-22T13:01:58;5.47;;;1.60;;
8230;SDS011;4156;50.908;6.974;2023-03-22T13:04:51;1.60;;;1.30;;
8230;SDS011;4156;50.908;6.974;2023-03-22T13:07:34;3.63;;;1.50;;
8230;SDS011;4156;50.908;6.974;2023-03-22T13:26:21;3.77;;;1.67;;
8230;SDS011;4156;50.908;6.974;2023-03-22T13:28:56;2.47;;;1.40;;
8230;SDS011;4156;50.908;6.974;2023-03-22T13:31:37;3.60;;;1.33;;
8230;SDS011;4156;50.908;6.974;2023-03-22T13:34:13;3.60;;;1.40;;
8230;SDS011;4156;50.908;6.974;2023-03-22T13:36:47;3.17;;;1.60;;
8230;SDS011;4156;50.908;6.974;2023-03-22T13:39:16;5.07;;;1.67;;
8230;SDS011;4156;50.908;6.974;2023-03-22T13:41:43;4.17;;;1.80;;
8230;SDS011;4156;50.908;6.974;2023-03-22T13:44:27;4.53;;;1.60;;
8230;SDS011;4156;50.908;6.974;2023-03-22T13:47:00;1.63;;;1.20;;
8230;SDS011;4156;50.908;6.974;2023-03-22T13:49:45;2.00;;;1.40;;
8230;SDS011;4156;50.908;6.974;2023-03-22T13:52:23;1.70;;;1.30;;
8230;SDS011;4156;50.908;6.974;2023-03-22T13:54:51;3.10;;;1.50;;
8230;SDS011;4156;50.908;6.974;2023-03-22T14:02:54;3.07;;;1.60;;
8230;SDS011;4156;50.908;6.974;2023-03-22T14:05:23;2.13;;;1.40;;
8230;SDS011;4156;50.908;6.974;2023-03-22T14:07:54;2.40;;;1.60;;
8230;SDS011;4156;50.908;6.974;2023-03-22T14:16:04;1.53;;;1.20;;
8230;SDS011;4156;50.908;6.974;2023-03-22T14:18:52;1.67;;;1.53;;
8230;SDS011;4156;50.908;6.974;2023-03-22T14:21:20;3.03;;;1.23;;
8230;SDS011;4156;50.908;6.974;2023-03-22T14:23:52;3.47;;;1.50;;
8230;SDS011;4156;50.908;6.974;2023-03-22T14:26:30;2.77;;;1.60;;
8230;SDS011;4156;50.908;6.974;2023-03-22T14:29:09;3.93;;;1.63;;
8230;SDS011;4156;50.908;6.974;2023-03-22T14:31:54;3.60;;;1.60;;
8230;SDS011;4156;50.908;6.974;2023-03-22T14:34:25;3.87;;;1.53;;
8230;SDS011;4156;50.908;6.974;2023-03-22T14:36:55;3.40;;;1.37;;
8230;SDS011;4156;50.908;6.974;2023-03-22T14:39:33;4.90;;;1.80;;
8230;SDS011;4156;50.908;6.974;2023-03-22T14:44:53;1.63;;;1.50;;
8230;SDS011;4156;50.908;6.974;2023-03-22T14:47:26;1.80;;;1.20;;
8230;SDS011;4156;50.908;6.974;2023-03-22T14:49:57;3.63;;;1.60;;
8230;SDS011;4156;50.908;6.974;2023-03-22T14:52:31;2.90;;;1.50;;
8230;SDS011;4156;50.908;6.974;2023-03-22T14:54:59;2.67;;;1.50;;
8230;SDS011;4156;50.908;6.974;2023-03-22T14:57:32;1.50;;;1.20;;
8230;SDS011;4156;50.908;6.974;2023-03-22T15:00:04;2.50;;;1.23;;
8230;SDS011;4156;50.908;6.974;2023-03-22T15:03:02;2.63;;;1.20;;
8230;SDS011;4156;50.908;6.974;2023-03-22T15:05:32;2.57;;;1.30;;
8230;SDS011;4156;50.908;6.974;2023-03-22T15:08:07;3.17;;;1.40;;
8230;SDS011;4156;50.908;6.974;2023-03-22T15:10:33;3.27;;;1.40;;
8230;SDS011;4156;50.908;6.974;2023-03-22T15:13:00;2.80;;;1.37;;
8230;SDS011;4156;50.908;6.974;2023-03-22T15:15:29;4.10;;;1.40;;
8230;SDS011;4156;50.908;6.974;2023-03-22T15:17:59;2.87;;;1.77;;
8230;SDS011;4156;50.908;6.974;2023-03-22T15:20:27;3.93;;;1.60;;
8230;SDS011;4156;50.908;6.974;2023-03-22T15:22:56;2.40;;;1.50;;
8230;SDS011;4156;50.908;6.974;2023-03-22T15:25:27;1.57;;;1.23;;
8230;SDS011;4156;50.908;6.974;2023-03-22T15:27:58;2.43;;;1.40;;
8230;SDS011;4156;50.908;6.974;2023-03-22T15:30:25;3.80;;;1.60;;
8230;SDS011;4156;50.908;6.974;2023-03-22T15:32:51;3.73;;;1.50;;
8230;SDS011;4156;50.908;6.974;2023-03-22T15:35:17;4.60;;;2.07;;
8230;SDS011;4156;50.908;6.974;2023-03-22T15:37:47;3.57;;;1.60;;
8230;SDS011;4156;50.908;6.974;2023-03-22T15:40:34;3.63;;;1.57;;
8230;SDS011;4156;50.908;6.974;2023-03-22T15:43:05;3.37;;;1.57;;
8230;SDS011;4156;50.908;6.974;2023-03-22T15:45:35;2.93;;;1.67;;
8230;SDS011;4156;50.908;6.974;2023-03-22T15:50:40;4.97;;;2.07;;
8230;SDS011;4156;50.908;6.974;2023-03-22T15:53:10;2.97;;;1.47;;
8230;SDS011;4156;50.908;6.974;2023-03-22T15:55:48;2.63;;;1.30;;
8230;SDS011;4156;50.908;6.974;2023-03-22T15:58:23;1.90;;;1.33;;
8230;SDS011;4156;50.908;6.974;2023-03-22T16:01:12;3.17;;;1.63;;
8230;SDS011;4156;50.908;6.974;2023-03-22T16:03:43;2.13;;;1.37;;
8230;SDS011;4156;50.908;6.974;2023-03-22T16:06:13;2.40;;;1.30;;
8230;SDS011;4156;50.908;6.974;2023-03-22T16:08:39;2.70;;;1.40;;
8230;SDS011;4156;50.908;6.974;2023-03-22T16:11:05;1.90;;;1.20;;
8230;SDS011;4156;50.908;6.974;2023-03-22T16:13:31;3.43;;;1.40;;
8230;SDS011;4156;50.908;6.974;2023-03-22T16:15:58;2.90;;;1.60;;
8230;SDS011;4156;50.908;6.974;2023-03-22T16:18:24;2.20;;;1.30;;
8230;SDS011;4156;50.908;6.974;2023-03-22T16:20:50;4.30;;;1.43;;
8230;SDS011;4156;50.908;6.974;2023-03-22T16:23:21;2.10;;;1.77;;
8230;SDS011;4156;50.908;6.974;2023-03-22T16:25:48;4.37;;;1.80;;
8230;SDS011;4156;50.908;6.974;2023-03-22T16:28:14;1.93;;;1.30;;
8230;SDS011;4156;50.908;6.974;2023-03-22T16:30:40;4.03;;;1.73;;
8230;SDS011;4156;50.908;6.974;2023-03-22T16:33:13;3.07;;;1.40;;
8230;SDS011;4156;50.908;6.974;2023-03-22T16:35:41;3.43;;;1.43;;
8230;SDS011;4156;50.908;6.974;2023-03-22T16:38:10;2.07;;;1.43;;
8230;SDS011;4156;50.908;6.974;2023-03-22T16:40:37;2.97;;;1.40;;
8230;SDS011;4156;50.908;6.974;2023-03-22T16:43:12;2.40;;;1.30;;
8230;SDS011;4156;50.908;6.974;2023-03-22T16:45:38;3.33;;;1.60;;
8230;SDS011;4156;50.908;6.974;2023-03-22T16:48:04;3.53;;;1.47;;
8230;SDS011;4156;50.908;6.974;2023-03-22T16:50:33;2.00;;;1.27;;
8230;SDS011;4156;50.908;6.974;2023-03-22T16:53:00;2.97;;;2.07;;
8230;SDS011;4156;50.908;6.974;2023-03-22T16:55:27;2.87;;;1.10;;